Iona, ID

7:49 AM MDT on September 23, 2014 (GMT -0600)
Idaho Falls High School | Change Station
CLOSE
Current Station
Personal Weather Station
Location: Idaho Falls, ID
Elevation: 4715 ft
Nearby Weather Stations

Elev 4715 ft 43.49 °N, 112.02 °W | Updated 4 seconds ago

Clear
Clear
50.7 °F
Feels Like 50.7 °F
N
0.0
Wind Variable Wind from NW
Gusts 0.0 mph

Today
High -- | Low -- °F
--% Chance of Precip.
Yesterday
High -- | Low -- °F
Precip. -- in
7:15 AM 7:22 PM
Waning Crescent, 0% visible
Pressure 30.10 in
Visibility 10.0 miles
Clouds Clear
Dew Point 48 °F
Humidity 91%
Rainfall 0.00 in
Snow Depth 0 in , 0 in , 1 in
UV 0 out of 12
Pollen 6.80 out of 12
PM2.5 Good
Flu Activity Not available.
METAR KIDA 231253Z 00000KT 10SM CLR 08/07 A3017 RMK AO2 SLP191 T00780072

More Conditions Fewer Conditions

Pressure 30.10 in
Visibility 10.0 miles
Clouds Clear
Dew Point 48 °F
Humidity 91%
Rainfall 0.00 in
Snow Depth 0 in , 0 in , 1 in
UV 0 out of 12
Pollen 6.80 out of 12
PM2.5 Good
Flu Activity Not available.
METAR KIDA 231253Z 00000KT 10SM CLR 08/07 A3017 RMK AO2 SLP191 T00780072

More Conditions Fewer Conditions

10-Day Weather Forecast

Almanac

Astronomy

Sep. 23, 2014 Rise Set
Actual Time 7:15 AM MDT 7:22 PM MDT
Civil Twilight 6:47 AM MDT 7:51 PM MDT
Nautical Twilight 6:13 AM MDT 8:24 PM MDT
Astronomical Twilight 5:39 AM MDT 8:58 PM MDT
Moon 6:43 AM MDT 7:03 PM MDT
Length of Visible Light 13h 03m
Length of Day
12h 06m
Tomorrow will be 2m 58s shorter.
Waning Crescent, 0% of the Moon is Illuminated
Today
Waning Crescent
Sep 24
New
Oct 1
First Quarter
Oct 8
Full
Oct 15
Last Quarter

Today's Extremes

State Highs State Lows

Community

WunderPhotos

Upload Photos

1,755,669 photos uploaded!

WunderBlogs® & News

Nearby

Air Quality

  Air Quality AQ Index Pollutant
Yesterday Good
PM2.5
Current Good
PM2.5

Snow Depth

Station Depth Elevation
Hilts Creek 0 in 8000 ft
Bear Canyon 0 in 7900 ft
Magic Mountain 1 in 6880 ft
Hidden Lake 1 in 5040 ft
Lost Lake 0 in 6110 ft

Earthquake Activity

City Distance Mag. Time & Date
No recent earthquake activity has been reported nearby.
Minimum magnitude displayed is 2.5.

Coastal Water Temperatures

Place Temperature
No Stations Reporting

Nearby Weather Stations